createdAt,value
2022-10-11T00:04:06.945Z,102334.84
2022-10-11T00:14:09.906Z,102330.78
2022-10-11T00:24:16.098Z,102340.47
2022-10-11T00:34:19.046Z,102348.59
2022-10-11T00:44:25.739Z,102354.34
2022-10-11T00:54:32.677Z,102366.88
2022-10-11T01:04:37.125Z,102365.63
2022-10-11T01:15:15.479Z,102371.03
2022-10-11T01:25:31.007Z,102368.03
2022-10-11T01:35:42.675Z,102370.94
2022-10-11T01:45:49.098Z,102385.13
2022-10-11T01:55:58.436Z,102379.53
2022-10-11T02:06:09.172Z,102390.28
2022-10-11T02:16:19.453Z,102398.34
2022-10-11T02:26:24.707Z,102397.94
2022-10-11T02:36:37.378Z,102403.72
2022-10-11T02:46:41.914Z,102397.50
2022-10-11T02:56:46.251Z,102392.06
2022-10-11T03:06:49.161Z,102407.16
2022-10-11T03:16:53.469Z,102414.59
2022-10-11T03:26:56.512Z,102414.97
2022-10-11T03:37:00.797Z,102411.56
2022-10-11T03:47:03.745Z,102424.22
2022-10-11T03:57:08.060Z,102431.56
2022-10-11T04:07:11.343Z,102434.41
2022-10-11T04:17:15.747Z,102438.66
2022-10-11T04:27:18.711Z,102455.81
2022-10-11T04:37:22.986Z,102469.97
2022-10-11T04:47:26.063Z,102465.41
2022-10-11T04:57:30.307Z,102477.78
2022-10-11T05:07:33.405Z,102469.25
2022-10-11T05:17:37.734Z,102480.78
2022-10-11T05:27:40.718Z,102483.88
2022-10-11T05:37:45.040Z,102486.16
2022-10-11T05:47:48.009Z,102503.22
2022-10-11T05:57:54.714Z,102495.75
2022-10-11T06:07:58.943Z,102515.97
2022-10-11T06:18:03.254Z,102519.69
2022-10-11T06:28:06.327Z,102535.66
2022-10-11T06:38:10.924Z,102540.66
2022-10-11T06:48:14.097Z,102556.88
2022-10-11T06:58:18.742Z,102558.38
2022-10-11T07:08:21.724Z,102565.13
2022-10-11T07:18:26.053Z,102576.16
2022-10-11T07:28:30.694Z,102579.41
2022-10-11T07:38:41.004Z,102589.53
2022-10-11T07:48:44.007Z,102590.69
2022-10-11T07:58:52.177Z,102596.84
2022-10-11T08:08:55.387Z,102598.75
2022-10-11T08:19:01.017Z,102607.59
2022-10-11T08:29:05.441Z,102607.00
2022-10-11T08:39:11.149Z,102614.22
2022-10-11T08:49:17.014Z,102604.16
2022-10-11T08:59:31.601Z,102612.38
2022-10-11T09:09:55.782Z,102624.03
2022-10-11T09:20:19.343Z,102618.28
2022-10-11T09:30:22.549Z,102613.88
2022-10-11T09:40:46.418Z,102605.97
2022-10-11T09:50:50.448Z,102607.66
2022-10-11T10:01:06.590Z,102599.25
2022-10-11T10:11:12.383Z,102602.75
2022-10-11T10:21:17.481Z,102597.19
2022-10-11T10:31:23.410Z,102591.81
2022-10-11T10:41:28.434Z,102587.19
2022-10-11T10:51:40.387Z,102591.06
2022-10-11T11:01:56.946Z,102584.56
2022-10-11T11:12:12.888Z,102576.19
2022-10-11T11:22:32.747Z,102572.91
2022-10-11T11:32:49.075Z,102553.25
2022-10-11T11:42:58.331Z,102547.41
2022-10-11T11:53:07.755Z,102535.50
2022-10-11T12:03:16.573Z,102519.19
2022-10-11T12:13:22.966Z,102510.69
2022-10-11T12:23:47.269Z,102515.03
2022-10-11T12:33:54.427Z,102509.91
2022-10-11T12:44:22.158Z,102502.25
2022-10-11T12:54:46.647Z,102491.88
2022-10-11T13:04:51.073Z,102484.84
2022-10-11T13:15:00.827Z,102490.06
2022-10-11T13:25:08.131Z,102480.34
2022-10-11T13:35:21.046Z,102475.06
2022-10-11T13:45:31.495Z,102470.03
2022-10-11T13:55:36.790Z,102457.97
2022-10-11T14:05:43.571Z,102458.00
2022-10-11T14:15:46.583Z,102454.59
2022-10-11T14:25:52.964Z,102454.50
2022-10-11T14:35:55.970Z,102445.78
2022-10-11T14:46:00.451Z,102443.03
2022-10-11T14:56:04.327Z,102440.41
2022-10-11T15:06:17.671Z,102437.84
2022-10-11T15:16:22.565Z,102430.94
2022-10-11T15:26:29.104Z,102417.88
2022-10-11T15:36:32.248Z,102409.13
2022-10-11T15:46:38.095Z,102403.81
2022-10-11T15:56:41.136Z,102402.78
2022-10-11T16:06:45.529Z,102404.22
2022-10-11T16:16:48.621Z,102397.88
2022-10-11T16:26:53.017Z,102405.38
2022-10-11T16:36:56.162Z,102401.53
2022-10-11T16:47:01.416Z,102414.97
2022-10-11T16:57:05.408Z,102414.38
2022-10-11T17:07:12.455Z,102411.97
2022-10-11T17:17:16.526Z,102421.56
2022-10-11T17:27:20.876Z,102428.59
2022-10-11T17:37:23.847Z,102429.50
2022-10-11T17:47:28.515Z,102438.19
2022-10-11T17:57:31.550Z,102437.41
2022-10-11T18:07:36.102Z,102439.25
2022-10-11T18:17:39.173Z,102437.56
2022-10-11T18:27:44.350Z,102435.94
2022-10-11T18:37:47.175Z,102437.06
2022-10-11T18:47:52.473Z,102439.88
2022-10-11T18:57:55.728Z,102437.56
2022-10-11T19:08:00.283Z,102435.09
2022-10-11T19:18:03.343Z,102426.91
2022-10-11T19:28:12.381Z,102420.38
2022-10-11T19:48:29.542Z,102412.88
2022-10-11T19:58:32.859Z,102424.25
2022-10-11T20:08:38.083Z,102421.06
2022-10-11T20:18:41.097Z,102403.28
2022-10-11T20:28:46.366Z,102415.41
2022-10-11T20:38:49.903Z,102414.69
2022-10-11T20:49:01.158Z,102423.34
2022-10-11T20:59:06.294Z,102429.47
2022-10-11T21:09:12.666Z,102422.13
2022-10-11T21:19:18.558Z,102423.25
2022-10-11T21:29:22.969Z,102421.72
2022-10-11T21:39:25.875Z,102427.16
2022-10-11T21:49:30.506Z,102432.72
2022-10-11T21:59:33.834Z,102429.63
2022-10-11T22:09:38.360Z,102427.38
2022-10-11T22:19:41.565Z,102418.25
2022-10-11T22:29:45.830Z,102409.28
2022-10-11T22:39:48.735Z,102396.00
2022-10-11T22:49:53.056Z,102406.00
2022-10-11T22:59:55.968Z,102391.16
2022-10-11T23:10:00.332Z,102399.44
2022-10-11T23:20:03.264Z,102389.88
2022-10-11T23:30:09.089Z,102399.81
2022-10-11T23:40:12.209Z,102397.56
2022-10-11T23:50:16.639Z,102388.19
